Time,TemperatureF,DewpointF,PressureIn,WindDirection,WindDirectionDegrees,WindSpeedMPH,WindSpeedGustMPH,Humidity,HourlyPrecipIn,Conditions,Clouds,dailyrainin,SoftwareType,DateUTC
2013-01-05 00:03:00,35.3,27.8,30.27,West,263,0.0,0.0,74,0.00,,,0.00,Wunderground v.1.15,2013-01-05 07:03:00,
2013-01-05 00:08:00,35.0,27.5,30.27,West,263,0.0,0.0,74,0.00,,,0.00,Wunderground v.1.15,2013-01-05 07:08:00,
2013-01-05 00:14:00,35.8,28.0,30.27,West,263,0.0,0.0,73,0.00,,,0.00,Wunderground v.1.15,2013-01-05 07:14:00,
2013-01-05 00:20:00,35.6,27.8,30.27,West,263,0.0,0.0,73,0.00,,,0.00,Wunderground v.1.15,2013-01-05 07:20:00,
2013-01-05 00:25:00,35.4,27.6,30.27,West,263,0.0,0.0,73,0.00,,,0.00,Wunderground v.1.15,2013-01-05 07:25:00,
2013-01-05 00:30:00,35.9,28.1,30.27,West,263,0.0,0.0,73,0.00,,,0.00,Wunderground v.1.15,2013-01-05 07:30:00,
2013-01-05 00:35:00,37.3,28.8,30.27,West,263,0.0,0.0,71,0.00,,,0.00,Wunderground v.1.15,2013-01-05 07:35:00,
2013-01-05 00:40:00,39.0,29.0,30.27,West,263,0.0,0.0,67,0.00,,,0.00,Wunderground v.1.15,2013-01-05 07:40:00,
2013-01-05 00:45:00,39.6,28.8,30.27,West,260,0.0,0.0,65,0.00,,,0.00,Wunderground v.1.15,2013-01-05 07:45:00,
2013-01-05 00:51:00,39.6,28.8,30.27,West,260,0.0,0.0,65,0.00,,,0.00,Wunderground v.1.15,2013-01-05 07:51:00,
2013-01-05 00:57:00,39.1,28.7,30.27,West,260,0.0,0.0,66,0.00,,,0.00,Wunderground v.1.15,2013-01-05 07:57:00,
2013-01-05 01:02:00,39.2,28.8,30.27,West,260,0.0,0.0,66,0.00,,,0.00,Wunderground v.1.15,2013-01-05 08:02:00,
2013-01-05 01:07:00,38.4,28.0,30.27,West,260,0.0,0.0,66,0.00,,,0.00,Wunderground v.1.15,2013-01-05 08:07:00,
2013-01-05 01:12:00,38.2,28.2,30.27,West,260,0.0,0.0,67,0.00,,,0.00,Wunderground v.1.15,2013-01-05 08:12:00,
2013-01-05 01:18:00,38.6,28.6,30.27,West,260,0.0,0.0,67,0.00,,,0.00,Wunderground v.1.15,2013-01-05 08:18:00,
2013-01-05 01:23:00,38.4,28.4,30.27,West,260,0.0,0.0,67,0.00,,,0.00,Wunderground v.1.15,2013-01-05 08:23:00,
2013-01-05 01:29:00,38.4,28.4,30.27,West,260,0.0,0.0,67,0.00,,,0.00,Wunderground v.1.15,2013-01-05 08:29:00,
2013-01-05 01:35:00,38.4,28.8,30.27,West,260,0.0,0.0,68,0.00,,,0.00,Wunderground v.1.15,2013-01-05 08:35:00,
2013-01-05 01:41:00,38.1,28.5,30.27,West,260,0.0,0.0,68,0.00,,,0.00,Wunderground v.1.15,2013-01-05 08:41:00,
2013-01-05 01:47:00,37.8,28.5,30.27,West,260,0.0,0.0,69,0.00,,,0.00,Wunderground v.1.15,2013-01-05 08:47:00,
2013-01-05 01:52:00,39.2,29.2,30.27,SSE,153,0.0,2.0,67,0.00,,,0.00,Wunderground v.1.15,2013-01-05 08:52:00,
2013-01-05 01:57:00,39.8,29.4,30.27,SSE,162,0.0,2.0,66,0.00,,,0.00,Wunderground v.1.15,2013-01-05 08:57:00,
2013-01-05 02:02:00,40.2,29.4,30.27,SE,144,1.0,2.0,65,0.00,,,0.00,Wunderground v.1.15,2013-01-05 09:02:00,
2013-01-05 02:07:00,40.2,29.4,30.27,SSE,148,1.0,2.0,65,0.00,,,0.00,Wunderground v.1.15,2013-01-05 09:07:00,
2013-01-05 02:12:00,40.1,29.3,30.27,SE,146,1.0,1.0,65,0.00,,,0.00,Wunderground v.1.15,2013-01-05 09:12:00,
2013-01-05 02:18:00,39.8,29.0,30.27,SE,138,0.0,1.0,65,0.00,,,0.00,Wunderground v.1.15,2013-01-05 09:18:00,
2013-01-05 02:23:00,39.2,28.8,30.27,SE,138,0.0,0.0,66,0.00,,,0.00,Wunderground v.1.15,2013-01-05 09:23:00,
2013-01-05 02:28:00,37.7,28.1,30.27,SE,138,0.0,0.0,68,0.00,,,0.00,Wunderground v.1.15,2013-01-05 09:28:00,
2013-01-05 02:33:00,36.1,27.6,30.27,SE,138,0.0,0.0,71,0.00,,,0.00,Wunderground v.1.15,2013-01-05 09:33:00,
2013-01-05 02:38:00,35.2,27.4,30.27,SE,138,0.0,0.0,73,0.00,,,0.00,Wunderground v.1.15,2013-01-05 09:38:00,
2013-01-05 02:43:00,35.7,28.6,30.27,SE,138,0.0,0.0,75,0.00,,,0.00,Wunderground v.1.15,2013-01-05 09:43:00,
2013-01-05 02:48:00,35.9,28.4,30.27,SE,138,0.0,0.0,74,0.00,,,0.00,Wunderground v.1.15,2013-01-05 09:48:00,
2013-01-05 02:54:00,35.9,28.4,30.28,SE,138,0.0,0.0,74,0.00,,,0.00,Wunderground v.1.15,2013-01-05 09:54:00,
2013-01-05 02:59:00,35.2,28.1,30.28,SE,138,0.0,0.0,75,0.00,,,0.00,Wunderground v.1.15,2013-01-05 09:59:00,
2013-01-05 03:04:00,35.2,28.4,30.28,SE,138,0.0,0.0,76,0.00,,,0.00,Wunderground v.1.15,2013-01-05 10:04:00,
2013-01-05 03:09:00,35.8,28.3,30.28,SE,138,0.0,0.0,74,0.00,,,0.00,Wunderground v.1.15,2013-01-05 10:09:00,
2013-01-05 03:14:00,35.3,28.2,30.28,SE,138,0.0,0.0,75,0.00,,,0.00,Wunderground v.1.15,2013-01-05 10:14:00,
2013-01-05 03:19:00,34.3,27.8,30.28,SE,138,0.0,0.0,77,0.00,,,0.00,Wunderground v.1.15,2013-01-05 10:19:00,
2013-01-05 03:24:00,34.4,27.9,30.29,SE,138,0.0,0.0,77,0.00,,,0.00,Wunderground v.1.15,2013-01-05 10:24:00,
2013-01-05 03:29:00,34.9,28.4,30.29,SE,138,0.0,0.0,77,0.00,,,0.00,Wunderground v.1.15,2013-01-05 10:29:00,
2013-01-05 03:34:00,35.3,28.5,30.29,SE,138,0.0,0.0,76,0.00,,,0.00,Wunderground v.1.15,2013-01-05 10:34:00,
2013-01-05 03:39:00,35.2,28.4,30.29,SE,138,0.0,0.0,76,0.00,,,0.00,Wunderground v.1.15,2013-01-05 10:39:00,
2013-01-05 03:44:00,35.6,28.1,30.29,SE,138,0.0,0.0,74,0.00,,,0.00,Wunderground v.1.15,2013-01-05 10:44:00,
2013-01-05 03:49:00,35.7,28.2,30.29,SE,138,0.0,0.0,74,0.00,,,0.00,Wunderground v.1.15,2013-01-05 10:49:00,
2013-01-05 03:55:00,35.9,28.1,30.29,SE,138,0.0,0.0,73,0.00,,,0.00,Wunderground v.1.15,2013-01-05 10:55:00,
2013-01-05 04:00:00,34.7,27.6,30.29,SE,138,0.0,0.0,75,0.00,,,0.00,Wunderground v.1.15,2013-01-05 11:00:00,
2013-01-05 04:05:00,33.9,27.4,30.29,SE,138,0.0,0.0,77,0.00,,,0.00,Wunderground v.1.15,2013-01-05 11:05:00,
2013-01-05 04:10:00,33.5,27.4,30.28,SE,138,0.0,0.0,78,0.00,,,0.00,Wunderground v.1.15,2013-01-05 11:10:00,
2013-01-05 04:16:00,33.5,27.7,30.28,SE,138,0.0,0.0,79,0.00,,,0.00,Wunderground v.1.15,2013-01-05 11:16:00,
2013-01-05 04:21:00,35.0,27.9,30.28,SE,138,0.0,0.0,75,0.00,,,0.00,Wunderground v.1.15,2013-01-05 11:21:00,
2013-01-05 04:26:00,34.9,27.8,30.28,SE,138,0.0,0.0,75,0.00,,,0.00,Wunderground v.1.15,2013-01-05 11:26:00,
2013-01-05 04:31:00,33.7,27.3,30.28,SE,138,0.0,0.0,77,0.00,,,0.00,Wunderground v.1.15,2013-01-05 11:31:00,
2013-01-05 04:37:00,33.5,27.4,30.28,SE,138,0.0,0.0,78,0.00,,,0.00,Wunderground v.1.15,2013-01-05 11:37:00,
2013-01-05 04:42:00,33.8,27.7,30.28,SE,138,0.0,0.0,78,0.00,,,0.00,Wunderground v.1.15,2013-01-05 11:42:00,
2013-01-05 04:47:00,34.3,27.8,30.28,SE,138,0.0,0.0,77,0.00,,,0.00,Wunderground v.1.15,2013-01-05 11:47:00,
2013-01-05 04:52:00,33.8,27.7,30.28,SE,138,0.0,0.0,78,0.00,,,0.00,Wunderground v.1.15,2013-01-05 11:52:00,
2013-01-05 04:57:00,33.5,27.7,30.28,SE,138,0.0,0.0,79,0.00,,,0.00,Wunderground v.1.15,2013-01-05 11:57:00,
2013-01-05 05:02:00,32.9,27.1,30.28,SE,138,0.0,0.0,79,0.00,,,0.00,Wunderground v.1.15,2013-01-05 12:02:00,
2013-01-05 05:07:00,32.5,27.3,30.28,SE,138,0.0,0.0,81,0.00,,,0.00,Wunderground v.1.15,2013-01-05 12:07:00,
2013-01-05 05:12:00,32.1,26.9,30.28,SE,138,0.0,0.0,81,0.00,,,0.00,Wunderground v.1.15,2013-01-05 12:12:00,
2013-01-05 05:18:00,31.7,26.5,30.28,SE,138,0.0,0.0,81,0.00,,,0.00,Wunderground v.1.15,2013-01-05 12:18:00,
2013-01-05 05:23:00,32.0,27.1,30.28,SE,138,0.0,0.0,82,0.00,,,0.00,Wunderground v.1.15,2013-01-05 12:23:00,
2013-01-05 05:28:00,32.2,27.0,30.28,SE,138,0.0,0.0,81,0.00,,,0.00,Wunderground v.1.15,2013-01-05 12:28:00,
2013-01-05 05:33:00,33.4,28.2,30.29,SE,138,0.0,0.0,81,0.00,,,0.00,Wunderground v.1.15,2013-01-05 12:33:00,
2013-01-05 05:39:00,34.0,28.2,30.29,SE,138,0.0,0.0,79,0.00,,,0.00,Wunderground v.1.15,2013-01-05 12:39:00,
2013-01-05 05:44:00,34.1,28.0,30.29,SE,140,0.0,0.0,78,0.00,,,0.00,Wunderground v.1.15,2013-01-05 12:44:00,
2013-01-05 05:49:00,34.6,28.1,30.30,SE,140,0.0,0.0,77,0.00,,,0.00,Wunderground v.1.15,2013-01-05 12:49:00,
2013-01-05 05:54:00,34.4,28.2,30.30,SE,140,0.0,0.0,78,0.00,,,0.00,Wunderground v.1.15,2013-01-05 12:54:00,
2013-01-05 05:59:00,34.7,28.2,30.30,SE,140,0.0,0.0,77,0.00,,,0.00,Wunderground v.1.15,2013-01-05 12:59:00,
2013-01-05 06:04:00,34.4,28.2,30.30,SE,140,0.0,0.0,78,0.00,,,0.00,Wunderground v.1.15,2013-01-05 13:04:00,
2013-01-05 06:09:00,34.0,28.2,30.30,SE,140,0.0,0.0,79,0.00,,,0.00,Wunderground v.1.15,2013-01-05 13:09:00,
2013-01-05 06:15:00,34.0,28.2,30.30,SE,140,0.0,0.0,79,0.00,,,0.00,Wunderground v.1.15,2013-01-05 13:15:00,
2013-01-05 06:20:00,34.3,28.5,30.30,SE,140,0.0,0.0,79,0.00,,,0.00,Wunderground v.1.15,2013-01-05 13:20:00,
2013-01-05 06:25:00,34.4,28.2,30.30,SE,140,0.0,0.0,78,0.00,,,0.00,Wunderground v.1.15,2013-01-05 13:25:00,
2013-01-05 06:30:00,33.7,27.9,30.31,SE,140,0.0,0.0,79,0.00,,,0.00,Wunderground v.1.15,2013-01-05 13:30:00,
2013-01-05 06:35:00,33.7,27.9,30.31,SE,140,0.0,0.0,79,0.00,,,0.00,Wunderground v.1.15,2013-01-05 13:35:00,
2013-01-05 06:40:00,34.2,28.4,30.31,SE,140,0.0,0.0,79,0.00,,,0.00,Wunderground v.1.15,2013-01-05 13:40:00,
2013-01-05 06:45:00,34.7,28.5,30.31,SE,140,0.0,0.0,78,0.00,,,0.00,Wunderground v.1.15,2013-01-05 13:45:00,
2013-01-05 06:50:00,34.1,27.6,30.31,SE,140,0.0,0.0,77,0.00,,,0.00,Wunderground v.1.15,2013-01-05 13:50:00,
2013-01-05 06:55:00,33.8,27.7,30.31,SE,140,0.0,0.0,78,0.00,,,0.00,Wunderground v.1.15,2013-01-05 13:55:00,
2013-01-05 07:00:00,32.9,27.1,30.31,SE,140,0.0,0.0,79,0.00,,,0.00,Wunderground v.1.15,2013-01-05 14:00:00,
2013-01-05 07:05:00,32.8,27.6,30.32,SE,140,0.0,0.0,81,0.00,,,0.00,Wunderground v.1.15,2013-01-05 14:05:00,
2013-01-05 07:11:00,33.4,27.9,30.32,SE,140,0.0,0.0,80,0.00,,,0.00,Wunderground v.1.15,2013-01-05 14:11:00,
2013-01-05 07:16:00,33.3,28.1,30.32,SE,140,0.0,0.0,81,0.00,,,0.00,Wunderground v.1.15,2013-01-05 14:16:00,
2013-01-05 07:21:00,33.8,28.0,30.32,SE,140,0.0,0.0,79,0.00,,,0.00,Wunderground v.1.15,2013-01-05 14:21:00,
2013-01-05 07:26:00,34.0,28.5,30.32,SE,140,0.0,0.0,80,0.00,,,0.00,Wunderground v.1.15,2013-01-05 14:26:00,
2013-01-05 07:31:00,34.4,28.6,30.32,SE,140,0.0,0.0,79,0.00,,,0.00,Wunderground v.1.15,2013-01-05 14:31:00,
2013-01-05 07:36:00,34.6,28.4,30.33,SE,140,0.0,0.0,78,0.00,,,0.00,Wunderground v.1.15,2013-01-05 14:36:00,
2013-01-05 07:41:00,34.6,28.4,30.33,SE,140,0.0,0.0,78,0.00,,,0.00,Wunderground v.1.15,2013-01-05 14:41:00,
2013-01-05 07:46:00,33.8,28.0,30.33,SE,140,0.0,0.0,79,0.00,,,0.00,Wunderground v.1.15,2013-01-05 14:46:00,
2013-01-05 07:51:00,34.2,28.7,30.33,SE,140,0.0,0.0,80,0.00,,,0.00,Wunderground v.1.15,2013-01-05 14:51:00,
2013-01-05 07:57:00,35.0,29.1,30.33,SE,140,0.0,0.0,79,0.00,,,0.00,Wunderground v.1.15,2013-01-05 14:57:00,
2013-01-05 08:02:00,35.4,29.2,30.33,SE,140,0.0,0.0,78,0.00,,,0.00,Wunderground v.1.15,2013-01-05 15:02:00,
2013-01-05 08:07:00,35.7,29.5,30.33,SE,140,0.0,0.0,78,0.00,,,0.00,Wunderground v.1.15,2013-01-05 15:07:00,
2013-01-05 08:12:00,36.3,29.8,30.33,SE,140,0.0,0.0,77,0.00,,,0.00,Wunderground v.1.15,2013-01-05 15:12:00,
2013-01-05 08:17:00,36.8,29.6,30.33,SE,140,0.0,0.0,75,0.00,,,0.00,Wunderground v.1.15,2013-01-05 15:17:00,
2013-01-05 08:22:00,37.2,29.7,30.34,SE,140,0.0,1.0,74,0.00,,,0.00,Wunderground v.1.15,2013-01-05 15:22:00,
2013-01-05 08:27:00,37.9,30.4,30.34,SE,140,0.0,1.0,74,0.00,,,0.00,Wunderground v.1.15,2013-01-05 15:27:00,
2013-01-05 08:32:00,38.5,30.3,30.34,SE,140,0.0,0.0,72,0.00,,,0.00,Wunderground v.1.15,2013-01-05 15:32:00,
2013-01-05 08:37:00,38.9,30.3,30.34,SE,140,1.0,1.0,71,0.00,,,0.00,Wunderground v.1.15,2013-01-05 15:37:00,
2013-01-05 08:42:00,39.4,30.8,30.34,SE,140,1.0,1.0,71,0.00,,,0.00,Wunderground v.1.15,2013-01-05 15:42:00,
2013-01-05 08:47:00,40.0,30.6,30.34,ESE,110,1.0,3.0,69,0.00,,,0.00,Wunderground v.1.15,2013-01-05 15:47:00,
2013-01-05 08:53:00,40.6,30.5,30.34,SE,134,0.0,3.0,67,0.00,,,0.00,Wunderground v.1.15,2013-01-05 15:53:00,
2013-01-05 08:57:00,41.6,31.1,30.34,SE,124,0.0,3.0,66,0.00,,,0.00,Wunderground v.1.15,2013-01-05 15:57:00,
2013-01-05 09:02:00,42.3,31.4,30.34,ESE,121,3.0,3.0,65,0.00,,,0.00,Wunderground v.1.15,2013-01-05 16:02:00,
2013-01-05 09:07:00,43.0,31.3,30.34,ESE,114,1.0,4.0,63,0.00,,,0.00,Wunderground v.1.15,2013-01-05 16:07:00,
2013-01-05 09:13:00,43.4,30.8,30.34,ESE,115,2.0,4.0,61,0.00,,,0.00,Wunderground v.1.15,2013-01-05 16:13:00,
2013-01-05 09:18:00,44.1,30.3,30.34,SE,140,4.0,5.0,58,0.00,,,0.00,Wunderground v.1.15,2013-01-05 16:18:00,
2013-01-05 09:23:00,44.5,30.2,30.34,ESE,116,3.0,4.0,57,0.00,,,0.00,Wunderground v.1.15,2013-01-05 16:23:00,
2013-01-05 09:28:00,44.6,29.9,30.34,SE,135,2.0,5.0,56,0.00,,,0.00,Wunderground v.1.15,2013-01-05 16:28:00,
2013-01-05 09:33:00,45.3,30.1,30.34,East,91,2.0,4.0,55,0.00,,,0.00,Wunderground v.1.15,2013-01-05 16:33:00,
2013-01-05 09:38:00,45.8,30.1,30.34,ESE,120,3.0,4.0,54,0.00,,,0.00,Wunderground v.1.15,2013-01-05 16:38:00,
2013-01-05 09:43:00,46.4,29.7,30.34,SE,134,3.0,4.0,52,0.00,,,0.00,Wunderground v.1.15,2013-01-05 16:43:00,
2013-01-05 09:48:00,46.7,29.5,30.35,SE,130,3.0,4.0,51,0.00,,,0.00,Wunderground v.1.15,2013-01-05 16:48:00,
2013-01-05 09:54:00,47.1,29.9,30.35,ESE,121,1.0,4.0,51,0.00,,,0.00,Wunderground v.1.15,2013-01-05 16:54:00,
2013-01-05 09:59:00,47.9,30.1,30.35,SE,140,2.0,4.0,50,0.00,,,0.00,Wunderground v.1.15,2013-01-05 16:59:00,
2013-01-05 10:04:00,48.1,29.8,30.35,SE,144,2.0,4.0,49,0.00,,,0.00,Wunderground v.1.15,2013-01-05 17:04:00,
2013-01-05 10:09:00,48.6,29.3,30.35,ESE,121,2.0,2.0,47,0.00,,,0.00,Wunderground v.1.15,2013-01-05 17:09:00,
2013-01-05 10:14:00,48.6,29.8,30.35,SE,134,3.0,5.0,48,0.00,,,0.00,Wunderground v.1.15,2013-01-05 17:14:00,
2013-01-05 10:19:00,48.6,29.3,30.35,SE,129,2.0,2.0,47,0.00,,,0.00,Wunderground v.1.15,2013-01-05 17:19:00,
2013-01-05 10:24:00,49.5,29.6,30.35,ESE,115,2.0,4.0,46,0.00,,,0.00,Wunderground v.1.15,2013-01-05 17:24:00,
2013-01-05 10:29:00,50.0,29.5,30.35,SSE,148,2.0,3.0,45,0.00,,,0.00,Wunderground v.1.15,2013-01-05 17:29:00,
2013-01-05 10:34:00,49.9,28.8,30.34,SE,145,2.0,5.0,44,0.00,,,0.00,Wunderground v.1.15,2013-01-05 17:34:00,
2013-01-05 10:39:00,50.2,29.7,30.34,SE,129,1.0,2.0,45,0.00,,,0.00,Wunderground v.1.15,2013-01-05 17:39:00,
2013-01-05 10:44:00,50.7,29.0,30.34,ESE,113,0.0,3.0,43,0.00,,,0.00,Wunderground v.1.15,2013-01-05 17:44:00,
2013-01-05 10:49:00,50.9,29.7,30.34,SE,127,0.0,1.0,44,0.00,,,0.00,Wunderground v.1.15,2013-01-05 17:49:00,
2013-01-05 10:54:00,51.5,29.1,30.34,SE,140,0.0,3.0,42,0.00,,,0.00,Wunderground v.1.15,2013-01-05 17:54:00,
2013-01-05 10:59:00,51.2,29.4,30.34,ESE,107,0.0,2.0,43,0.00,,,0.00,Wunderground v.1.15,2013-01-05 17:59:00,
2013-01-05 11:05:00,52.0,30.2,30.33,SE,138,0.0,2.0,43,0.00,,,0.00,Wunderground v.1.15,2013-01-05 18:05:00,
2013-01-05 11:10:00,52.1,30.3,30.33,SE,134,5.0,5.0,43,0.00,,,0.00,Wunderground v.1.15,2013-01-05 18:10:00,
2013-01-05 11:15:00,52.0,29.6,30.33,ENE,62,1.0,5.0,42,0.00,,,0.00,Wunderground v.1.15,2013-01-05 18:15:00,
2013-01-05 11:20:00,52.5,30.0,30.33,ESE,123,1.0,2.0,42,0.00,,,0.00,Wunderground v.1.15,2013-01-05 18:20:00,
2013-01-05 11:25:00,53.0,29.9,30.33,ESE,108,4.0,4.0,41,0.00,,,0.00,Wunderground v.1.15,2013-01-05 18:25:00,
2013-01-05 11:30:00,52.8,29.1,30.32,East,88,2.0,3.0,40,0.00,,,0.00,Wunderground v.1.15,2013-01-05 18:30:00,
2013-01-05 11:35:00,53.6,28.6,30.32,SE,142,6.0,6.0,38,0.00,,,0.00,Wunderground v.1.15,2013-01-05 18:35:00,
2013-01-05 11:40:00,54.5,29.4,30.31,SE,140,2.0,4.0,38,0.00,,,0.00,Wunderground v.1.15,2013-01-05 18:40:00,
2013-01-05 11:46:00,54.6,28.2,30.31,ESE,120,1.0,5.0,36,0.00,,,0.00,Wunderground v.1.15,2013-01-05 18:46:00,
2013-01-05 11:51:00,54.7,28.9,30.31,SE,142,0.0,2.0,37,0.00,,,0.00,Wunderground v.1.15,2013-01-05 18:51:00,
2013-01-05 11:56:00,55.2,29.4,30.31,ENE,67,2.0,4.0,37,0.00,,,0.00,Wunderground v.1.15,2013-01-05 18:56:00,
2013-01-05 12:01:00,55.3,29.4,30.30,ESE,103,0.0,2.0,37,0.00,,,0.00,Wunderground v.1.15,2013-01-05 19:01:00,
2013-01-05 12:06:00,55.8,28.5,30.30,ENE,64,4.0,5.0,35,0.00,,,0.00,Wunderground v.1.15,2013-01-05 19:06:00,
2013-01-05 12:11:00,55.8,28.5,30.29,ESE,103,0.0,3.0,35,0.00,,,0.00,Wunderground v.1.15,2013-01-05 19:11:00,
2013-01-05 12:16:00,55.9,28.6,30.29,SE,136,0.0,3.0,35,0.00,,,0.00,Wunderground v.1.15,2013-01-05 19:16:00,
2013-01-05 12:21:00,57.3,28.4,30.29,ESE,109,1.0,2.0,33,0.00,,,0.00,Wunderground v.1.15,2013-01-05 19:21:00,
2013-01-05 12:27:00,56.8,28.0,30.28,East,84,0.0,5.0,33,0.00,,,0.00,Wunderground v.1.15,2013-01-05 19:27:00,
2013-01-05 12:32:00,56.8,28.7,30.28,SSE,148,2.0,2.0,34,0.00,,,0.00,Wunderground v.1.15,2013-01-05 19:32:00,
2013-01-05 12:37:00,56.7,27.9,30.28,NE,46,1.0,3.0,33,0.00,,,0.00,Wunderground v.1.15,2013-01-05 19:37:00,
2013-01-05 12:42:00,57.2,27.6,30.27,ENE,65,2.0,3.0,32,0.00,,,0.00,Wunderground v.1.15,2013-01-05 19:42:00,
2013-01-05 12:47:00,57.6,26.4,30.27,NE,49,1.0,3.0,30,0.00,,,0.00,Wunderground v.1.15,2013-01-05 19:47:00,
2013-01-05 12:52:00,58.1,27.6,30.26,East,99,1.0,3.0,31,0.00,,,0.00,Wunderground v.1.15,2013-01-05 19:52:00,
2013-01-05 12:57:00,57.9,26.6,30.26,East,86,1.0,3.0,30,0.00,,,0.00,Wunderground v.1.15,2013-01-05 19:57:00,
2013-01-05 13:02:00,58.3,25.3,30.26,NE,55,3.0,3.0,28,0.00,,,0.00,Wunderground v.1.15,2013-01-05 20:02:00,
2013-01-05 13:07:00,58.6,25.6,30.26,ESE,103,2.0,5.0,28,0.00,,,0.00,Wunderground v.1.15,2013-01-05 20:07:00,
2013-01-05 13:13:00,58.8,25.7,30.25,ESE,103,2.0,3.0,28,0.00,,,0.00,Wunderground v.1.15,2013-01-05 20:13:00,
2013-01-05 13:18:00,59.0,25.0,30.25,SE,132,0.0,3.0,27,0.00,,,0.00,Wunderground v.1.15,2013-01-05 20:18:00,
2013-01-05 13:23:00,59.0,25.0,30.25,East,81,2.0,5.0,27,0.00,,,0.00,Wunderground v.1.15,2013-01-05 20:23:00,
2013-01-05 13:28:00,59.1,25.1,30.25,NE,42,1.0,5.0,27,0.00,,,0.00,Wunderground v.1.15,2013-01-05 20:28:00,
2013-01-05 13:33:00,59.4,24.5,30.24,NNE,25,1.0,2.0,26,0.00,,,0.00,Wunderground v.1.15,2013-01-05 20:33:00,
2013-01-05 13:38:00,59.3,24.4,30.24,NNE,28,2.0,4.0,26,0.00,,,0.00,Wunderground v.1.15,2013-01-05 20:38:00,
2013-01-05 13:44:00,59.5,23.6,30.24,NNW,347,2.0,2.0,25,0.00,,,0.00,Wunderground v.1.15,2013-01-05 20:44:00,
2013-01-05 13:49:00,60.4,24.4,30.24,NNW,345,1.0,1.0,25,0.00,,,0.00,Wunderground v.1.15,2013-01-05 20:49:00,
2013-01-05 13:54:00,59.7,22.8,30.24,WNW,298,0.0,3.0,24,0.00,,,0.00,Wunderground v.1.15,2013-01-05 20:54:00,
2013-01-05 13:59:00,60.0,21.0,30.24,NW,323,1.0,1.0,22,0.00,,,0.00,Wunderground v.1.15,2013-01-05 20:59:00,
2013-01-05 14:04:00,60.3,22.3,30.24,NW,324,0.0,2.0,23,0.00,,,0.00,Wunderground v.1.15,2013-01-05 21:04:00,
2013-01-05 14:09:00,61.2,23.1,30.23,East,87,2.0,2.0,23,0.00,,,0.00,Wunderground v.1.15,2013-01-05 21:09:00,
2013-01-05 14:14:00,61.1,21.9,30.23,NNE,28,0.0,3.0,22,0.00,,,0.00,Wunderground v.1.15,2013-01-05 21:14:00,
2013-01-05 14:19:00,61.5,21.2,30.23,NNW,327,3.0,3.0,21,0.00,,,0.00,Wunderground v.1.15,2013-01-05 21:19:00,
2013-01-05 14:24:00,61.3,21.0,30.23,NW,315,0.0,3.0,21,0.00,,,0.00,Wunderground v.1.15,2013-01-05 21:24:00,
2013-01-05 14:29:00,61.2,22.0,30.23,WSW,256,1.0,1.0,22,0.00,,,0.00,Wunderground v.1.15,2013-01-05 21:29:00,
2013-01-05 14:34:00,61.8,22.5,30.23,NNW,332,2.0,4.0,22,0.00,,,0.00,Wunderground v.1.15,2013-01-05 21:34:00,
2013-01-05 14:40:00,62.0,21.6,30.23,North,350,2.0,3.0,21,0.00,,,0.00,Wunderground v.1.15,2013-01-05 21:40:00,
2013-01-05 14:45:00,62.1,20.5,30.23,North,360,3.0,5.0,20,0.00,,,0.00,Wunderground v.1.15,2013-01-05 21:45:00,
2013-01-05 14:50:00,61.2,22.0,30.23,NW,325,0.0,2.0,22,0.00,,,0.00,Wunderground v.1.15,2013-01-05 21:50:00,
2013-01-05 14:55:00,62.0,22.7,30.23,North,9,1.0,3.0,22,0.00,,,0.00,Wunderground v.1.15,2013-01-05 21:55:00,
2013-01-05 15:00:00,62.1,21.7,30.23,North,5,3.0,5.0,21,0.00,,,0.00,Wunderground v.1.15,2013-01-05 22:00:00,
2013-01-05 15:05:00,62.0,22.7,30.23,North,5,5.0,5.0,22,0.00,,,0.00,Wunderground v.1.15,2013-01-05 22:05:00,
2013-01-05 15:11:00,61.8,23.6,30.23,NNE,24,3.0,3.0,23,0.00,,,0.00,Wunderground v.1.15,2013-01-05 22:11:00,
2013-01-05 15:16:00,61.7,22.4,30.23,NE,51,1.0,3.0,22,0.00,,,0.00,Wunderground v.1.15,2013-01-05 22:16:00,
2013-01-05 15:21:00,61.9,22.6,30.23,North,5,0.0,3.0,22,0.00,,,0.00,Wunderground v.1.15,2013-01-05 22:21:00,
2013-01-05 15:26:00,61.5,22.3,30.23,NNE,17,3.0,4.0,22,0.00,,,0.00,Wunderground v.1.15,2013-01-05 22:26:00,
2013-01-05 15:31:00,61.8,22.5,30.23,North,5,1.0,4.0,22,0.00,,,0.00,Wunderground v.1.15,2013-01-05 22:31:00,
2013-01-05 15:36:00,61.9,22.6,30.23,NW,325,3.0,4.0,22,0.00,,,0.00,Wunderground v.1.15,2013-01-05 22:36:00,
2013-01-05 15:41:00,62.2,22.8,30.22,NNE,25,2.0,4.0,22,0.00,,,0.00,Wunderground v.1.15,2013-01-05 22:41:00,
2013-01-05 15:46:00,61.9,22.6,30.22,NE,50,2.0,4.0,22,0.00,,,0.00,Wunderground v.1.15,2013-01-05 22:46:00,
2013-01-05 15:51:00,61.8,23.6,30.22,North,355,1.0,5.0,23,0.00,,,0.00,Wunderground v.1.15,2013-01-05 22:51:00,
2013-01-05 15:56:00,61.9,22.6,30.22,North,355,0.0,5.0,22,0.00,,,0.00,Wunderground v.1.15,2013-01-05 22:56:00,
2013-01-05 16:02:00,62.0,22.7,30.22,NNW,333,0.0,3.0,22,0.00,,,0.00,Wunderground v.1.15,2013-01-05 23:02:00,
2013-01-05 16:07:00,61.9,22.6,30.22,NNW,348,2.0,3.0,22,0.00,,,0.00,Wunderground v.1.15,2013-01-05 23:07:00,
2013-01-05 16:12:00,61.5,23.3,30.23,NW,315,0.0,4.0,23,0.00,,,0.00,Wunderground v.1.15,2013-01-05 23:12:00,
2013-01-05 16:17:00,61.1,23.0,30.23,NNW,339,2.0,4.0,23,0.00,,,0.00,Wunderground v.1.15,2013-01-05 23:17:00,
2013-01-05 16:22:00,61.4,24.2,30.23,North,350,0.0,4.0,24,0.00,,,0.00,Wunderground v.1.15,2013-01-05 23:22:00,
2013-01-05 16:27:00,61.0,24.9,30.23,NNW,346,1.0,4.0,25,0.00,,,0.00,Wunderground v.1.15,2013-01-05 23:27:00,
2013-01-05 16:32:00,60.4,25.3,30.23,NNW,335,0.0,2.0,26,0.00,,,0.00,Wunderground v.1.15,2013-01-05 23:32:00,
2013-01-05 16:37:00,60.0,25.9,30.23,NW,312,1.0,2.0,27,0.00,,,0.00,Wunderground v.1.15,2013-01-05 23:37:00,
2013-01-05 16:42:00,59.7,26.5,30.23,NNW,338,2.0,3.0,28,0.00,,,0.00,Wunderground v.1.15,2013-01-05 23:42:00,
2013-01-05 16:48:00,59.5,27.2,30.23,NNW,335,1.0,4.0,29,0.00,,,0.00,Wunderground v.1.15,2013-01-05 23:48:00,
2013-01-05 16:53:00,59.2,26.9,30.23,NNW,344,2.0,2.0,29,0.00,,,0.00,Wunderground v.1.15,2013-01-05 23:53:00,
2013-01-05 16:58:00,58.7,27.3,30.23,NW,317,0.0,3.0,30,0.00,,,0.00,Wunderground v.1.15,2013-01-05 23:58:00,
2013-01-05 17:03:00,58.1,27.6,30.23,NW,315,1.0,2.0,31,0.00,,,0.00,Wunderground v.1.15,2013-01-06 00:03:00,
2013-01-05 17:08:00,57.4,27.7,30.22,NW,319,0.0,2.0,32,0.00,,,0.00,Wunderground v.1.15,2013-01-06 00:08:00,
2013-01-05 17:13:00,55.9,27.9,30.22,NW,319,0.0,1.0,34,0.00,,,0.00,Wunderground v.1.15,2013-01-06 00:13:00,
2013-01-05 17:18:00,54.9,27.7,30.22,NW,319,0.0,1.0,35,0.00,,,0.00,Wunderground v.1.15,2013-01-06 00:18:00,
2013-01-05 17:23:00,54.2,27.1,30.22,NW,319,0.0,0.0,35,0.00,,,0.00,Wunderground v.1.15,2013-01-06 00:23:00,
2013-01-05 17:28:00,53.7,27.4,30.23,NW,319,1.0,1.0,36,0.00,,,0.00,Wunderground v.1.15,2013-01-06 00:28:00,
2013-01-05 17:33:00,53.2,27.6,30.23,West,278,1.0,2.0,37,0.00,,,0.00,Wunderground v.1.15,2013-01-06 00:33:00,
2013-01-05 17:38:00,52.7,27.8,30.23,West,278,0.0,2.0,38,0.00,,,0.00,Wunderground v.1.15,2013-01-06 00:38:00,
2013-01-05 17:43:00,52.7,27.8,30.22,West,277,1.0,2.0,38,0.00,,,0.00,Wunderground v.1.15,2013-01-06 00:43:00,
2013-01-05 17:49:00,52.3,27.4,30.22,West,277,2.0,2.0,38,0.00,,,0.00,Wunderground v.1.15,2013-01-06 00:49:00,
2013-01-05 17:54:00,51.7,27.5,30.22,West,277,0.0,2.0,39,0.00,,,0.00,Wunderground v.1.15,2013-01-06 00:54:00,
2013-01-05 17:59:00,51.0,28.1,30.22,West,277,1.0,1.0,41,0.00,,,0.00,Wunderground v.1.15,2013-01-06 00:59:00,
2013-01-05 18:04:00,50.4,27.6,30.22,West,277,2.0,2.0,41,0.00,,,0.00,Wunderground v.1.15,2013-01-06 01:04:00,
2013-01-05 18:09:00,50.7,27.8,30.22,WSW,254,2.0,2.0,41,0.00,,,0.00,Wunderground v.1.15,2013-01-06 01:09:00,
2013-01-05 18:14:00,50.7,27.8,30.22,WSW,254,0.0,2.0,41,0.00,,,0.00,Wunderground v.1.15,2013-01-06 01:14:00,
2013-01-05 18:19:00,50.7,27.2,30.22,WSW,254,1.0,2.0,40,0.00,,,0.00,Wunderground v.1.15,2013-01-06 01:19:00,
2013-01-05 18:24:00,50.7,27.2,30.22,WSW,253,2.0,2.0,40,0.00,,,0.00,Wunderground v.1.15,2013-01-06 01:24:00,
2013-01-05 18:29:00,50.3,26.9,30.23,WSW,252,1.0,1.0,40,0.00,,,0.00,Wunderground v.1.15,2013-01-06 01:29:00,
2013-01-05 18:34:00,50.2,26.2,30.22,WSW,252,0.0,2.0,39,0.00,,,0.00,Wunderground v.1.15,2013-01-06 01:34:00,
2013-01-05 18:39:00,48.7,26.0,30.22,WSW,252,0.0,0.0,41,0.00,,,0.00,Wunderground v.1.15,2013-01-06 01:39:00,
2013-01-05 18:44:00,47.1,26.3,30.23,WSW,252,0.0,2.0,44,0.00,,,0.00,Wunderground v.1.15,2013-01-06 01:44:00,
2013-01-05 18:49:00,47.0,25.6,30.23,WSW,252,0.0,0.0,43,0.00,,,0.00,Wunderground v.1.15,2013-01-06 01:49:00,
2013-01-05 18:54:00,46.5,25.2,30.23,WSW,252,0.0,1.0,43,0.00,,,0.00,Wunderground v.1.15,2013-01-06 01:54:00,
2013-01-05 19:00:00,46.9,25.0,30.23,WSW,252,0.0,0.0,42,0.00,,,0.00,Wunderground v.1.15,2013-01-06 02:00:00,
2013-01-05 19:05:00,46.7,24.8,30.23,WSW,252,0.0,1.0,42,0.00,,,0.00,Wunderground v.1.15,2013-01-06 02:05:00,
2013-01-05 19:10:00,46.0,24.7,30.23,WSW,252,0.0,0.0,43,0.00,,,0.00,Wunderground v.1.15,2013-01-06 02:10:00,
2013-01-05 19:15:00,45.9,24.6,30.23,WSW,252,0.0,0.0,43,0.00,,,0.00,Wunderground v.1.15,2013-01-06 02:15:00,
2013-01-05 19:20:00,45.8,24.5,30.23,WSW,252,0.0,0.0,43,0.00,,,0.00,Wunderground v.1.15,2013-01-06 02:20:00,
2013-01-05 19:25:00,46.5,24.6,30.23,WSW,252,1.0,2.0,42,0.00,,,0.00,Wunderground v.1.15,2013-01-06 02:25:00,
2013-01-05 19:30:00,46.7,24.8,30.23,WSW,252,0.0,1.0,42,0.00,,,0.00,Wunderground v.1.15,2013-01-06 02:30:00,
2013-01-05 19:35:00,46.8,24.3,30.23,WSW,252,0.0,2.0,41,0.00,,,0.00,Wunderground v.1.15,2013-01-06 02:35:00,
2013-01-05 19:40:00,46.1,24.8,30.23,WSW,252,0.0,0.0,43,0.00,,,0.00,Wunderground v.1.15,2013-01-06 02:40:00,
2013-01-05 19:45:00,45.4,24.7,30.22,WSW,252,0.0,1.0,44,0.00,,,0.00,Wunderground v.1.15,2013-01-06 02:45:00,
2013-01-05 19:50:00,46.1,25.4,30.22,WSW,252,0.0,0.0,44,0.00,,,0.00,Wunderground v.1.15,2013-01-06 02:50:00,
2013-01-05 19:56:00,46.2,25.5,30.23,WSW,252,0.0,1.0,44,0.00,,,0.00,Wunderground v.1.15,2013-01-06 02:56:00,
2013-01-05 20:01:00,45.6,25.5,30.22,WSW,252,0.0,1.0,45,0.00,,,0.00,Wunderground v.1.15,2013-01-06 03:01:00,
2013-01-05 20:06:00,45.5,25.9,30.22,WSW,252,0.0,1.0,46,0.00,,,0.00,Wunderground v.1.15,2013-01-06 03:06:00,
2013-01-05 20:11:00,45.8,26.2,30.23,WSW,252,0.0,2.0,46,0.00,,,0.00,Wunderground v.1.15,2013-01-06 03:11:00,
2013-01-05 20:16:00,45.3,25.7,30.23,WSW,252,0.0,2.0,46,0.00,,,0.00,Wunderground v.1.15,2013-01-06 03:16:00,
2013-01-05 20:21:00,43.7,25.8,30.23,WSW,252,0.0,1.0,49,0.00,,,0.00,Wunderground v.1.15,2013-01-06 03:21:00,
2013-01-05 20:26:00,42.5,26.1,30.23,WSW,252,0.0,1.0,52,0.00,,,0.00,Wunderground v.1.15,2013-01-06 03:26:00,
2013-01-05 20:31:00,41.5,26.1,30.23,WSW,252,0.0,0.0,54,0.00,,,0.00,Wunderground v.1.15,2013-01-06 03:31:00,
2013-01-05 20:36:00,41.4,26.4,30.23,WSW,252,0.0,1.0,55,0.00,,,0.00,Wunderground v.1.15,2013-01-06 03:36:00,
2013-01-05 20:41:00,41.7,26.3,30.23,WSW,252,1.0,1.0,54,0.00,,,0.00,Wunderground v.1.15,2013-01-06 03:41:00,
2013-01-05 20:46:00,41.3,26.8,30.23,WSW,252,0.0,2.0,56,0.00,,,0.00,Wunderground v.1.15,2013-01-06 03:46:00,
2013-01-05 20:52:00,40.9,26.4,30.23,WSW,252,0.0,1.0,56,0.00,,,0.00,Wunderground v.1.15,2013-01-06 03:52:00,
2013-01-05 20:57:00,40.6,27.0,30.23,WSW,252,0.0,1.0,58,0.00,,,0.00,Wunderground v.1.15,2013-01-06 03:57:00,
2013-01-05 21:02:00,41.4,27.3,30.23,WSW,252,0.0,0.0,57,0.00,,,0.00,Wunderground v.1.15,2013-01-06 04:02:00,
2013-01-05 21:07:00,43.6,27.6,30.22,WSW,252,0.0,0.0,53,0.00,,,0.00,Wunderground v.1.15,2013-01-06 04:07:00,
2013-01-05 21:12:00,44.3,27.8,30.22,WSW,252,0.0,1.0,52,0.00,,,0.00,Wunderground v.1.15,2013-01-06 04:12:00,
2013-01-05 21:17:00,43.7,27.2,30.22,WSW,252,0.0,1.0,52,0.00,,,0.00,Wunderground v.1.15,2013-01-06 04:17:00,
2013-01-05 21:22:00,42.1,26.6,30.22,WSW,252,0.0,0.0,54,0.00,,,0.00,Wunderground v.1.15,2013-01-06 04:22:00,
2013-01-05 21:27:00,40.0,26.4,30.22,WSW,252,0.0,0.0,58,0.00,,,0.00,Wunderground v.1.15,2013-01-06 04:27:00,
2013-01-05 21:33:00,39.5,27.2,30.22,WSW,252,0.0,0.0,61,0.00,,,0.00,Wunderground v.1.15,2013-01-06 04:33:00,
2013-01-05 21:38:00,39.2,27.3,30.22,WSW,252,0.0,0.0,62,0.00,,,0.00,Wunderground v.1.15,2013-01-06 04:38:00,
2013-01-05 21:43:00,39.3,27.4,30.22,WSW,252,0.0,0.0,62,0.00,,,0.00,Wunderground v.1.15,2013-01-06 04:43:00,
2013-01-05 21:48:00,39.9,27.1,30.22,WSW,252,1.0,1.0,60,0.00,,,0.00,Wunderground v.1.15,2013-01-06 04:48:00,
2013-01-05 21:53:00,42.1,27.5,30.22,WSW,252,1.0,2.0,56,0.00,,,0.00,Wunderground v.1.15,2013-01-06 04:53:00,
2013-01-05 21:58:00,43.0,27.0,30.22,WSW,252,1.0,2.0,53,0.00,,,0.00,Wunderground v.1.15,2013-01-06 04:58:00,
2013-01-05 22:00:00,43.5,27.5,30.22,WSW,252,1.0,2.0,53,0.00,,,0.00,Wunderground v.1.15,2013-01-06 05:00:00,
2013-01-05 22:02:00,43.0,27.0,30.22,WSW,252,1.0,2.0,53,0.00,,,0.00,Wunderground v.1.15,2013-01-06 05:02:00,
2013-01-05 22:03:00,42.7,26.7,30.22,WSW,252,2.0,2.0,53,0.00,,,0.00,Wunderground v.1.15,2013-01-06 05:03:00,
2013-01-05 22:05:00,42.4,26.9,30.22,WSW,252,1.0,2.0,54,0.00,,,0.00,Wunderground v.1.15,2013-01-06 05:05:00,
2013-01-05 22:10:00,41.1,26.6,30.22,WSW,252,1.0,1.0,56,0.00,,,0.00,Wunderground v.1.15,2013-01-06 05:10:00,
2013-01-05 22:15:00,41.0,26.9,30.22,WSW,252,0.0,1.0,57,0.00,,,0.00,Wunderground v.1.15,2013-01-06 05:15:00,
2013-01-05 22:20:00,41.2,27.1,30.22,WSW,252,0.0,1.0,57,0.00,,,0.00,Wunderground v.1.15,2013-01-06 05:20:00,
2013-01-05 22:25:00,40.3,26.7,30.22,WSW,252,0.0,1.0,58,0.00,,,0.00,Wunderground v.1.15,2013-01-06 05:25:00,
2013-01-05 22:30:00,39.3,27.0,30.23,WSW,252,0.0,0.0,61,0.00,,,0.00,Wunderground v.1.15,2013-01-06 05:30:00,
2013-01-05 22:35:00,38.8,26.5,30.23,WSW,252,1.0,1.0,61,0.00,,,0.00,Wunderground v.1.15,2013-01-06 05:35:00,
2013-01-05 22:40:00,38.9,27.0,30.22,WSW,252,0.0,0.0,62,0.00,,,0.00,Wunderground v.1.15,2013-01-06 05:40:00,
2013-01-05 22:46:00,38.2,27.1,30.22,WSW,252,0.0,0.0,64,0.00,,,0.00,Wunderground v.1.15,2013-01-06 05:46:00,
2013-01-05 22:51:00,37.5,26.8,30.22,WSW,252,0.0,0.0,65,0.00,,,0.00,Wunderground v.1.15,2013-01-06 05:51:00,
2013-01-05 22:56:00,37.1,26.8,30.22,WSW,252,1.0,1.0,66,0.00,,,0.00,Wunderground v.1.15,2013-01-06 05:56:00,
2013-01-05 23:01:00,36.6,26.3,30.22,WSW,252,0.0,2.0,66,0.00,,,0.00,Wunderground v.1.15,2013-01-06 06:01:00,
2013-01-05 23:06:00,36.5,26.6,30.22,WSW,252,0.0,2.0,67,0.00,,,0.00,Wunderground v.1.15,2013-01-06 06:06:00,
2013-01-05 23:11:00,37.2,26.9,30.22,WSW,252,1.0,1.0,66,0.00,,,0.00,Wunderground v.1.15,2013-01-06 06:11:00,
2013-01-05 23:16:00,36.9,26.6,30.22,WSW,252,0.0,1.0,66,0.00,,,0.00,Wunderground v.1.15,2013-01-06 06:16:00,
2013-01-05 23:21:00,36.8,26.9,30.23,WSW,252,0.0,0.0,67,0.00,,,0.00,Wunderground v.1.15,2013-01-06 06:21:00,
2013-01-05 23:26:00,36.0,26.8,30.22,WSW,252,0.0,0.0,69,0.00,,,0.00,Wunderground v.1.15,2013-01-06 06:26:00,
2013-01-05 23:31:00,37.0,27.4,30.22,WSW,252,0.0,0.0,68,0.00,,,0.00,Wunderground v.1.15,2013-01-06 06:31:00,
2013-01-05 23:36:00,36.5,26.6,30.22,WSW,252,0.0,1.0,67,0.00,,,0.00,Wunderground v.1.15,2013-01-06 06:36:00,
2013-01-05 23:42:00,35.9,26.4,30.22,WSW,252,0.0,1.0,68,0.00,,,0.00,Wunderground v.1.15,2013-01-06 06:42:00,
2013-01-05 23:47:00,35.3,26.1,30.22,WSW,252,0.0,1.0,69,0.00,,,0.00,Wunderground v.1.15,2013-01-06 06:47:00,
2013-01-05 23:52:00,35.1,26.3,30.22,WSW,252,0.0,0.0,70,0.00,,,0.00,Wunderground v.1.15,2013-01-06 06:52:00,
2013-01-05 23:57:00,35.0,26.2,30.22,WSW,252,0.0,0.0,70,0.00,,,0.00,Wunderground v.1.15,2013-01-06 06:57:00,